sensor_id;sensor_type;location;lat;lon;timestamp;P1;durP1;ratioP1;P2;durP2;ratioP2
70532;SDS011;58088;51.186;17.130;2023-09-19T00:00:40;8.90;;;4.50;;
70532;SDS011;58088;51.186;17.130;2023-09-19T00:03:07;8.30;;;4.50;;
70532;SDS011;58088;51.186;17.130;2023-09-19T00:05:36;6.30;;;3.30;;
70532;SDS011;58088;51.186;17.130;2023-09-19T00:08:10;6.80;;;3.20;;
70532;SDS011;58088;51.186;17.130;2023-09-19T00:10:36;4.90;;;2.40;;
70532;SDS011;58088;51.186;17.130;2023-09-19T00:13:03;7.50;;;2.70;;
70532;SDS011;58088;51.186;17.130;2023-09-19T00:15:38;6.90;;;2.90;;
70532;SDS011;58088;51.186;17.130;2023-09-19T00:18:09;7.00;;;2.90;;
70532;SDS011;58088;51.186;17.130;2023-09-19T00:20:36;7.70;;;3.10;;
70532;SDS011;58088;51.186;17.130;2023-09-19T00:23:05;6.10;;;2.60;;
70532;SDS011;58088;51.186;17.130;2023-09-19T00:25:34;5.40;;;1.90;;
70532;SDS011;58088;51.186;17.130;2023-09-19T00:28:04;6.30;;;2.00;;
70532;SDS011;58088;51.186;17.130;2023-09-19T00:30:35;4.90;;;2.40;;
70532;SDS011;58088;51.186;17.130;2023-09-19T00:33:03;5.20;;;1.90;;
70532;SDS011;58088;51.186;17.130;2023-09-19T00:35:31;7.00;;;2.10;;
70532;SDS011;58088;51.186;17.130;2023-09-19T00:37:59;7.20;;;2.00;;
70532;SDS011;58088;51.186;17.130;2023-09-19T00:40:25;3.90;;;1.70;;
70532;SDS011;58088;51.186;17.130;2023-09-19T00:42:57;4.80;;;1.80;;
70532;SDS011;58088;51.186;17.130;2023-09-19T00:45:27;6.20;;;2.00;;
70532;SDS011;58088;51.186;17.130;2023-09-19T00:47:54;6.30;;;2.00;;
70532;SDS011;58088;51.186;17.130;2023-09-19T00:50:23;5.90;;;2.20;;
70532;SDS011;58088;51.186;17.130;2023-09-19T00:52:54;4.90;;;1.90;;
70532;SDS011;58088;51.186;17.130;2023-09-19T00:55:24;5.50;;;1.70;;
70532;SDS011;58088;51.186;17.130;2023-09-19T00:57:52;5.40;;;2.20;;
70532;SDS011;58088;51.186;17.130;2023-09-19T01:00:20;5.90;;;1.60;;
70532;SDS011;58088;51.186;17.130;2023-09-19T01:02:48;4.60;;;1.50;;
70532;SDS011;58088;51.186;17.130;2023-09-19T01:05:14;6.40;;;2.10;;
70532;SDS011;58088;51.186;17.130;2023-09-19T01:07:42;4.60;;;1.70;;
70532;SDS011;58088;51.186;17.130;2023-09-19T01:10:17;5.80;;;1.90;;
70532;SDS011;58088;51.186;17.130;2023-09-19T01:15:54;7.50;;;2.20;;
70532;SDS011;58088;51.186;17.130;2023-09-19T01:18:51;6.10;;;1.90;;
70532;SDS011;58088;51.186;17.130;2023-09-19T01:21:28;4.90;;;1.90;;
70532;SDS011;58088;51.186;17.130;2023-09-19T01:30:21;3.60;;;1.70;;
70532;SDS011;58088;51.186;17.130;2023-09-19T01:32:51;6.50;;;1.80;;
70532;SDS011;58088;51.186;17.130;2023-09-19T01:35:20;5.20;;;1.90;;
70532;SDS011;58088;51.186;17.130;2023-09-19T01:37:46;5.90;;;1.80;;
70532;SDS011;58088;51.186;17.130;2023-09-19T01:40:14;6.30;;;1.90;;
70532;SDS011;58088;51.186;17.130;2023-09-19T01:52:13;4.90;;;1.60;;
70532;SDS011;58088;51.186;17.130;2023-09-19T01:54:51;4.60;;;1.50;;
70532;SDS011;58088;51.186;17.130;2023-09-19T01:57:27;5.00;;;1.60;;
70532;SDS011;58088;51.186;17.130;2023-09-19T02:00:07;5.90;;;1.60;;
70532;SDS011;58088;51.186;17.130;2023-09-19T02:02:44;6.00;;;1.60;;
70532;SDS011;58088;51.186;17.130;2023-09-19T02:05:22;4.10;;;1.80;;
70532;SDS011;58088;51.186;17.130;2023-09-19T02:07:53;4.30;;;1.60;;
70532;SDS011;58088;51.186;17.130;2023-09-19T02:10:20;6.60;;;1.80;;
70532;SDS011;58088;51.186;17.130;2023-09-19T02:12:46;4.90;;;1.40;;
70532;SDS011;58088;51.186;17.130;2023-09-19T02:15:13;3.80;;;1.70;;
70532;SDS011;58088;51.186;17.130;2023-09-19T02:17:42;4.30;;;1.60;;
70532;SDS011;58088;51.186;17.130;2023-09-19T02:20:11;3.30;;;1.30;;
70532;SDS011;58088;51.186;17.130;2023-09-19T02:22:43;3.80;;;1.40;;
70532;SDS011;58088;51.186;17.130;2023-09-19T02:25:10;4.20;;;1.70;;
70532;SDS011;58088;51.186;17.130;2023-09-19T02:27:36;5.20;;;1.70;;
70532;SDS011;58088;51.186;17.130;2023-09-19T02:30:04;7.00;;;1.50;;
70532;SDS011;58088;51.186;17.130;2023-09-19T02:32:31;5.80;;;1.60;;
70532;SDS011;58088;51.186;17.130;2023-09-19T02:35:01;3.60;;;1.30;;
70532;SDS011;58088;51.186;17.130;2023-09-19T02:37:29;3.60;;;1.40;;
70532;SDS011;58088;51.186;17.130;2023-09-19T02:39:56;4.90;;;1.60;;
70532;SDS011;58088;51.186;17.130;2023-09-19T02:42:22;4.80;;;1.50;;
70532;SDS011;58088;51.186;17.130;2023-09-19T02:44:48;4.90;;;1.40;;
70532;SDS011;58088;51.186;17.130;2023-09-19T02:47:15;4.80;;;1.70;;
70532;SDS011;58088;51.186;17.130;2023-09-19T02:49:42;3.50;;;1.40;;
70532;SDS011;58088;51.186;17.130;2023-09-19T02:52:09;6.70;;;1.60;;
70532;SDS011;58088;51.186;17.130;2023-09-19T02:54:37;5.40;;;1.50;;
70532;SDS011;58088;51.186;17.130;2023-09-19T02:57:03;4.20;;;1.50;;
70532;SDS011;58088;51.186;17.130;2023-09-19T02:59:32;5.00;;;1.70;;
70532;SDS011;58088;51.186;17.130;2023-09-19T03:01:58;5.90;;;1.60;;
70532;SDS011;58088;51.186;17.130;2023-09-19T03:04:26;6.10;;;1.70;;
70532;SDS011;58088;51.186;17.130;2023-09-19T03:06:52;4.40;;;1.70;;
70532;SDS011;58088;51.186;17.130;2023-09-19T03:09:24;4.10;;;1.70;;
70532;SDS011;58088;51.186;17.130;2023-09-19T03:11:50;4.80;;;1.50;;
70532;SDS011;58088;51.186;17.130;2023-09-19T03:14:17;7.60;;;1.90;;
70532;SDS011;58088;51.186;17.130;2023-09-19T03:16:46;4.20;;;1.70;;
70532;SDS011;58088;51.186;17.130;2023-09-19T03:19:13;5.70;;;1.70;;
70532;SDS011;58088;51.186;17.130;2023-09-19T03:21:41;4.50;;;2.00;;
70532;SDS011;58088;51.186;17.130;2023-09-19T03:24:08;5.30;;;1.80;;
70532;SDS011;58088;51.186;17.130;2023-09-19T03:26:34;5.90;;;2.00;;
70532;SDS011;58088;51.186;17.130;2023-09-19T03:29:03;5.70;;;1.80;;
70532;SDS011;58088;51.186;17.130;2023-09-19T03:31:33;4.70;;;2.00;;
70532;SDS011;58088;51.186;17.130;2023-09-19T03:34:02;5.00;;;1.90;;
70532;SDS011;58088;51.186;17.130;2023-09-19T03:36:30;4.50;;;1.80;;
70532;SDS011;58088;51.186;17.130;2023-09-19T03:38:56;4.10;;;1.80;;
70532;SDS011;58088;51.186;17.130;2023-09-19T03:41:23;5.60;;;2.10;;
70532;SDS011;58088;51.186;17.130;2023-09-19T03:43:49;5.60;;;1.90;;
70532;SDS011;58088;51.186;17.130;2023-09-19T03:46:15;6.80;;;1.80;;
70532;SDS011;58088;51.186;17.130;2023-09-19T03:48:42;5.80;;;2.00;;
70532;SDS011;58088;51.186;17.130;2023-09-19T03:51:09;3.90;;;1.70;;
70532;SDS011;58088;51.186;17.130;2023-09-19T03:53:36;6.80;;;1.90;;
70532;SDS011;58088;51.186;17.130;2023-09-19T03:56:02;5.90;;;2.00;;
70532;SDS011;58088;51.186;17.130;2023-09-19T03:58:30;6.40;;;2.00;;
70532;SDS011;58088;51.186;17.130;2023-09-19T04:00:56;6.60;;;1.90;;
70532;SDS011;58088;51.186;17.130;2023-09-19T04:03:26;7.20;;;2.30;;
70532;SDS011;58088;51.186;17.130;2023-09-19T04:06:01;6.70;;;2.30;;
70532;SDS011;58088;51.186;17.130;2023-09-19T04:08:28;7.40;;;2.30;;
70532;SDS011;58088;51.186;17.130;2023-09-19T04:10:55;6.90;;;2.10;;
70532;SDS011;58088;51.186;17.130;2023-09-19T04:13:22;5.40;;;2.10;;
70532;SDS011;58088;51.186;17.130;2023-09-19T04:15:49;7.60;;;1.90;;
70532;SDS011;58088;51.186;17.130;2023-09-19T04:18:15;6.10;;;2.10;;
70532;SDS011;58088;51.186;17.130;2023-09-19T04:20:48;6.50;;;2.20;;
70532;SDS011;58088;51.186;17.130;2023-09-19T04:23:16;4.70;;;1.90;;
70532;SDS011;58088;51.186;17.130;2023-09-19T04:25:43;6.20;;;1.70;;
70532;SDS011;58088;51.186;17.130;2023-09-19T04:28:09;5.20;;;2.10;;
70532;SDS011;58088;51.186;17.130;2023-09-19T04:30:38;3.50;;;1.60;;
70532;SDS011;58088;51.186;17.130;2023-09-19T04:33:06;6.70;;;1.90;;
70532;SDS011;58088;51.186;17.130;2023-09-19T04:35:33;5.50;;;2.10;;
70532;SDS011;58088;51.186;17.130;2023-09-19T04:38:00;5.70;;;1.80;;
70532;SDS011;58088;51.186;17.130;2023-09-19T04:40:28;5.80;;;2.10;;
70532;SDS011;58088;51.186;17.130;2023-09-19T04:42:56;6.50;;;2.00;;
70532;SDS011;58088;51.186;17.130;2023-09-19T04:45:25;6.00;;;2.60;;
70532;SDS011;58088;51.186;17.130;2023-09-19T04:47:53;6.60;;;2.10;;
70532;SDS011;58088;51.186;17.130;2023-09-19T04:50:20;6.70;;;2.00;;
70532;SDS011;58088;51.186;17.130;2023-09-19T04:52:53;5.80;;;2.30;;
70532;SDS011;58088;51.186;17.130;2023-09-19T04:55:20;5.70;;;2.30;;
70532;SDS011;58088;51.186;17.130;2023-09-19T04:57:47;7.80;;;2.20;;
70532;SDS011;58088;51.186;17.130;2023-09-19T05:00:18;6.40;;;2.40;;
70532;SDS011;58088;51.186;17.130;2023-09-19T05:02:54;6.70;;;2.40;;
70532;SDS011;58088;51.186;17.130;2023-09-19T05:05:24;5.00;;;2.20;;
70532;SDS011;58088;51.186;17.130;2023-09-19T05:07:55;7.10;;;2.50;;
70532;SDS011;58088;51.186;17.130;2023-09-19T05:10:21;7.20;;;2.60;;
70532;SDS011;58088;51.186;17.130;2023-09-19T05:12:47;6.10;;;2.40;;
70532;SDS011;58088;51.186;17.130;2023-09-19T05:15:17;6.20;;;2.30;;
70532;SDS011;58088;51.186;17.130;2023-09-19T05:17:50;6.10;;;2.50;;
70532;SDS011;58088;51.186;17.130;2023-09-19T05:20:20;7.50;;;2.50;;
70532;SDS011;58088;51.186;17.130;2023-09-19T05:23:05;7.90;;;2.50;;
70532;SDS011;58088;51.186;17.130;2023-09-19T05:25:39;7.30;;;2.80;;
70532;SDS011;58088;51.186;17.130;2023-09-19T05:28:06;5.50;;;2.60;;
70532;SDS011;58088;51.186;17.130;2023-09-19T05:30:35;9.00;;;2.50;;
70532;SDS011;58088;51.186;17.130;2023-09-19T05:33:02;6.00;;;2.80;;
70532;SDS011;58088;51.186;17.130;2023-09-19T05:35:30;7.20;;;3.00;;
70532;SDS011;58088;51.186;17.130;2023-09-19T05:37:57;7.60;;;2.80;;
70532;SDS011;58088;51.186;17.130;2023-09-19T05:40:25;7.20;;;2.90;;
70532;SDS011;58088;51.186;17.130;2023-09-19T05:42:51;8.90;;;3.20;;
70532;SDS011;58088;51.186;17.130;2023-09-19T05:45:17;6.60;;;2.80;;
70532;SDS011;58088;51.186;17.130;2023-09-19T05:47:51;10.80;;;3.00;;
70532;SDS011;58088;51.186;17.130;2023-09-19T05:50:22;7.50;;;3.40;;
70532;SDS011;58088;51.186;17.130;2023-09-19T05:52:54;6.70;;;2.90;;
70532;SDS011;58088;51.186;17.130;2023-09-19T05:55:22;7.40;;;2.70;;
70532;SDS011;58088;51.186;17.130;2023-09-19T05:57:51;9.00;;;3.40;;
70532;SDS011;58088;51.186;17.130;2023-09-19T06:00:22;6.40;;;2.90;;
70532;SDS011;58088;51.186;17.130;2023-09-19T06:02:57;7.20;;;3.10;;
70532;SDS011;58088;51.186;17.130;2023-09-19T06:05:25;6.80;;;2.80;;
70532;SDS011;58088;51.186;17.130;2023-09-19T06:07:53;8.00;;;3.00;;
70532;SDS011;58088;51.186;17.130;2023-09-19T06:10:19;6.70;;;2.90;;
70532;SDS011;58088;51.186;17.130;2023-09-19T06:12:51;10.50;;;3.50;;
70532;SDS011;58088;51.186;17.130;2023-09-19T06:15:17;6.00;;;2.80;;
70532;SDS011;58088;51.186;17.130;2023-09-19T06:17:50;6.60;;;3.10;;
70532;SDS011;58088;51.186;17.130;2023-09-19T06:20:17;6.80;;;2.60;;
70532;SDS011;58088;51.186;17.130;2023-09-19T06:22:44;7.60;;;2.90;;
70532;SDS011;58088;51.186;17.130;2023-09-19T06:25:15;6.80;;;3.30;;
70532;SDS011;58088;51.186;17.130;2023-09-19T06:27:49;6.80;;;2.10;;
70532;SDS011;58088;51.186;17.130;2023-09-19T06:30:20;6.80;;;2.50;;
70532;SDS011;58088;51.186;17.130;2023-09-19T06:32:48;7.90;;;2.20;;
70532;SDS011;58088;51.186;17.130;2023-09-19T06:35:16;7.30;;;1.70;;
70532;SDS011;58088;51.186;17.130;2023-09-19T06:37:43;5.40;;;1.90;;
70532;SDS011;58088;51.186;17.130;2023-09-19T06:40:13;6.70;;;1.80;;
70532;SDS011;58088;51.186;17.130;2023-09-19T06:42:45;6.10;;;2.10;;
70532;SDS011;58088;51.186;17.130;2023-09-19T06:45:16;6.10;;;1.80;;
70532;SDS011;58088;51.186;17.130;2023-09-19T06:47:46;6.30;;;2.00;;
70532;SDS011;58088;51.186;17.130;2023-09-19T06:50:17;6.50;;;1.70;;
70532;SDS011;58088;51.186;17.130;2023-09-19T06:52:45;7.30;;;2.30;;
70532;SDS011;58088;51.186;17.130;2023-09-19T06:55:16;6.50;;;2.00;;
70532;SDS011;58088;51.186;17.130;2023-09-19T06:57:43;4.30;;;1.60;;
70532;SDS011;58088;51.186;17.130;2023-09-19T07:00:10;5.20;;;1.80;;
70532;SDS011;58088;51.186;17.130;2023-09-19T07:03:00;5.80;;;1.60;;
70532;SDS011;58088;51.186;17.130;2023-09-19T07:05:33;6.50;;;2.00;;
70532;SDS011;58088;51.186;17.130;2023-09-19T07:08:03;5.50;;;1.60;;
70532;SDS011;58088;51.186;17.130;2023-09-19T07:10:30;3.30;;;1.30;;
70532;SDS011;58088;51.186;17.130;2023-09-19T07:13:01;6.80;;;2.00;;
70532;SDS011;58088;51.186;17.130;2023-09-19T07:15:29;5.80;;;1.60;;
70532;SDS011;58088;51.186;17.130;2023-09-19T07:18:05;5.10;;;1.60;;
70532;SDS011;58088;51.186;17.130;2023-09-19T07:20:32;8.20;;;2.10;;
70532;SDS011;58088;51.186;17.130;2023-09-19T07:23:00;4.20;;;1.80;;
70532;SDS011;58088;51.186;17.130;2023-09-19T07:25:27;5.70;;;1.70;;
70532;SDS011;58088;51.186;17.130;2023-09-19T07:28:00;4.70;;;1.50;;
70532;SDS011;58088;51.186;17.130;2023-09-19T07:30:26;3.30;;;1.40;;
70532;SDS011;58088;51.186;17.130;2023-09-19T07:32:53;4.20;;;1.70;;
70532;SDS011;58088;51.186;17.130;2023-09-19T07:35:19;5.60;;;1.80;;
70532;SDS011;58088;51.186;17.130;2023-09-19T07:37:48;4.60;;;1.60;;
70532;SDS011;58088;51.186;17.130;2023-09-19T07:40:15;4.10;;;1.70;;
70532;SDS011;58088;51.186;17.130;2023-09-19T07:42:42;5.40;;;1.70;;
70532;SDS011;58088;51.186;17.130;2023-09-19T07:45:10;4.50;;;1.70;;
70532;SDS011;58088;51.186;17.130;2023-09-19T07:47:50;4.40;;;1.70;;
70532;SDS011;58088;51.186;17.130;2023-09-19T07:50:18;5.30;;;1.60;;
70532;SDS011;58088;51.186;17.130;2023-09-19T07:52:48;5.30;;;1.70;;
70532;SDS011;58088;51.186;17.130;2023-09-19T07:55:21;3.70;;;1.60;;
70532;SDS011;58088;51.186;17.130;2023-09-19T07:57:51;3.10;;;1.40;;
70532;SDS011;58088;51.186;17.130;2023-09-19T08:00:18;4.90;;;1.60;;
70532;SDS011;58088;51.186;17.130;2023-09-19T08:02:45;4.30;;;1.50;;
70532;SDS011;58088;51.186;17.130;2023-09-19T08:05:12;3.70;;;1.80;;
70532;SDS011;58088;51.186;17.130;2023-09-19T08:07:44;4.70;;;1.60;;
70532;SDS011;58088;51.186;17.130;2023-09-19T08:10:18;3.50;;;1.40;;
70532;SDS011;58088;51.186;17.130;2023-09-19T08:12:48;3.20;;;1.40;;
70532;SDS011;58088;51.186;17.130;2023-09-19T08:15:19;4.80;;;1.70;;
70532;SDS011;58088;51.186;17.130;2023-09-19T08:17:46;7.20;;;1.40;;
70532;SDS011;58088;51.186;17.130;2023-09-19T08:20:12;4.00;;;1.40;;
70532;SDS011;58088;51.186;17.130;2023-09-19T08:22:46;3.40;;;1.30;;
70532;SDS011;58088;51.186;17.130;2023-09-19T08:25:18;3.10;;;1.50;;
70532;SDS011;58088;51.186;17.130;2023-09-19T08:27:48;4.00;;;1.50;;
70532;SDS011;58088;51.186;17.130;2023-09-19T08:30:16;4.30;;;1.70;;
70532;SDS011;58088;51.186;17.130;2023-09-19T08:32:50;3.60;;;1.60;;
70532;SDS011;58088;51.186;17.130;2023-09-19T08:35:17;5.10;;;1.60;;
70532;SDS011;58088;51.186;17.130;2023-09-19T08:37:43;6.50;;;1.70;;
70532;SDS011;58088;51.186;17.130;2023-09-19T08:40:11;4.60;;;1.80;;
70532;SDS011;58088;51.186;17.130;2023-09-19T08:42:49;4.60;;;1.70;;
70532;SDS011;58088;51.186;17.130;2023-09-19T08:45:16;3.50;;;1.60;;
70532;SDS011;58088;51.186;17.130;2023-09-19T08:47:53;2.90;;;1.30;;
70532;SDS011;58088;51.186;17.130;2023-09-19T08:50:27;5.10;;;1.70;;
70532;SDS011;58088;51.186;17.130;2023-09-19T08:52:55;4.50;;;1.40;;
70532;SDS011;58088;51.186;17.130;2023-09-19T08:55:29;3.70;;;1.60;;
70532;SDS011;58088;51.186;17.130;2023-09-19T08:58:06;3.30;;;1.50;;
70532;SDS011;58088;51.186;17.130;2023-09-19T09:00:36;4.30;;;1.80;;
70532;SDS011;58088;51.186;17.130;2023-09-19T09:03:09;4.40;;;1.50;;
70532;SDS011;58088;51.186;17.130;2023-09-19T09:05:37;5.20;;;1.80;;
70532;SDS011;58088;51.186;17.130;2023-09-19T09:08:06;4.70;;;1.80;;
70532;SDS011;58088;51.186;17.130;2023-09-19T09:10:33;4.20;;;1.80;;
70532;SDS011;58088;51.186;17.130;2023-09-19T09:13:00;3.60;;;1.60;;
70532;SDS011;58088;51.186;17.130;2023-09-19T09:15:29;4.70;;;1.70;;
70532;SDS011;58088;51.186;17.130;2023-09-19T09:17:57;5.10;;;1.80;;
70532;SDS011;58088;51.186;17.130;2023-09-19T09:20:25;3.80;;;1.70;;
70532;SDS011;58088;51.186;17.130;2023-09-19T09:22:56;4.50;;;1.70;;
70532;SDS011;58088;51.186;17.130;2023-09-19T09:25:52;4.70;;;1.60;;
70532;SDS011;58088;51.186;17.130;2023-09-19T09:28:27;4.10;;;1.60;;
70532;SDS011;58088;51.186;17.130;2023-09-19T09:30:55;6.00;;;1.60;;
70532;SDS011;58088;51.186;17.130;2023-09-19T09:33:22;4.70;;;1.80;;
70532;SDS011;58088;51.186;17.130;2023-09-19T09:35:53;5.90;;;2.00;;
70532;SDS011;58088;51.186;17.130;2023-09-19T09:38:27;3.80;;;1.80;;
70532;SDS011;58088;51.186;17.130;2023-09-19T09:41:15;4.10;;;1.40;;
70532;SDS011;58088;51.186;17.130;2023-09-19T09:43:53;4.90;;;1.60;;
70532;SDS011;58088;51.186;17.130;2023-09-19T09:46:21;4.20;;;1.40;;
70532;SDS011;58088;51.186;17.130;2023-09-19T09:49:07;4.40;;;1.40;;
70532;SDS011;58088;51.186;17.130;2023-09-19T09:54:34;3.40;;;1.40;;
70532;SDS011;58088;51.186;17.130;2023-09-19T09:57:08;5.40;;;1.70;;
70532;SDS011;58088;51.186;17.130;2023-09-19T09:59:58;3.50;;;1.60;;
70532;SDS011;58088;51.186;17.130;2023-09-19T10:02:42;2.80;;;1.40;;
70532;SDS011;58088;51.186;17.130;2023-09-19T10:05:20;3.70;;;1.30;;
70532;SDS011;58088;51.186;17.130;2023-09-19T10:07:50;3.60;;;1.30;;
70532;SDS011;58088;51.186;17.130;2023-09-19T10:10:32;4.30;;;1.30;;
70532;SDS011;58088;51.186;17.130;2023-09-19T10:13:20;4.80;;;1.90;;
70532;SDS011;58088;51.186;17.130;2023-09-19T10:15:51;3.40;;;1.50;;
70532;SDS011;58088;51.186;17.130;2023-09-19T10:18:24;3.10;;;1.40;;
70532;SDS011;58088;51.186;17.130;2023-09-19T10:20:54;3.30;;;1.30;;
70532;SDS011;58088;51.186;17.130;2023-09-19T10:23:21;4.40;;;1.50;;
70532;SDS011;58088;51.186;17.130;2023-09-19T10:25:49;2.80;;;1.40;;
70532;SDS011;58088;51.186;17.130;2023-09-19T10:28:18;3.90;;;1.60;;
70532;SDS011;58088;51.186;17.130;2023-09-19T10:30:50;4.10;;;1.70;;
70532;SDS011;58088;51.186;17.130;2023-09-19T10:33:22;3.90;;;1.20;;
70532;SDS011;58088;51.186;17.130;2023-09-19T10:35:56;2.80;;;1.10;;
70532;SDS011;58088;51.186;17.130;2023-09-19T10:38:26;4.50;;;1.40;;
70532;SDS011;58088;51.186;17.130;2023-09-19T10:40:56;2.40;;;1.30;;
70532;SDS011;58088;51.186;17.130;2023-09-19T10:43:29;4.30;;;1.10;;
70532;SDS011;58088;51.186;17.130;2023-09-19T10:46:03;3.40;;;1.20;;
70532;SDS011;58088;51.186;17.130;2023-09-19T10:48:38;2.30;;;1.00;;
70532;SDS011;58088;51.186;17.130;2023-09-19T10:51:27;3.00;;;1.30;;
70532;SDS011;58088;51.186;17.130;2023-09-19T10:54:02;3.10;;;1.10;;
70532;SDS011;58088;51.186;17.130;2023-09-19T10:56:43;4.20;;;1.20;;
70532;SDS011;58088;51.186;17.130;2023-09-19T10:59:15;5.10;;;1.60;;
70532;SDS011;58088;51.186;17.130;2023-09-19T11:01:55;2.60;;;1.20;;
70532;SDS011;58088;51.186;17.130;2023-09-19T11:04:31;4.10;;;1.60;;
70532;SDS011;58088;51.186;17.130;2023-09-19T11:07:05;3.10;;;1.20;;
70532;SDS011;58088;51.186;17.130;2023-09-19T11:09:54;3.60;;;1.20;;
70532;SDS011;58088;51.186;17.130;2023-09-19T11:15:07;4.30;;;1.40;;
70532;SDS011;58088;51.186;17.130;2023-09-19T11:17:42;3.80;;;1.50;;
70532;SDS011;58088;51.186;17.130;2023-09-19T11:30:42;3.80;;;1.20;;
70532;SDS011;58088;51.186;17.130;2023-09-19T11:33:18;3.70;;;1.00;;
70532;SDS011;58088;51.186;17.130;2023-09-19T11:43:49;3.10;;;1.20;;
70532;SDS011;58088;51.186;17.130;2023-09-19T11:46:26;3.70;;;1.10;;
70532;SDS011;58088;51.186;17.130;2023-09-19T11:48:54;4.10;;;1.00;;
70532;SDS011;58088;51.186;17.130;2023-09-19T11:51:25;2.20;;;0.90;;
70532;SDS011;58088;51.186;17.130;2023-09-19T11:53:58;2.20;;;1.00;;
70532;SDS011;58088;51.186;17.130;2023-09-19T11:56:28;2.80;;;1.00;;
70532;SDS011;58088;51.186;17.130;2023-09-19T11:58:56;2.70;;;0.90;;
70532;SDS011;58088;51.186;17.130;2023-09-19T12:01:32;2.90;;;1.00;;
70532;SDS011;58088;51.186;17.130;2023-09-19T12:04:04;3.20;;;0.90;;
70532;SDS011;58088;51.186;17.130;2023-09-19T12:06:31;1.90;;;0.90;;
70532;SDS011;58088;51.186;17.130;2023-09-19T12:09:02;2.30;;;0.90;;
70532;SDS011;58088;51.186;17.130;2023-09-19T12:11:33;1.60;;;0.80;;
70532;SDS011;58088;51.186;17.130;2023-09-19T12:14:08;2.80;;;0.90;;
70532;SDS011;58088;51.186;17.130;2023-09-19T12:16:34;2.90;;;1.10;;
70532;SDS011;58088;51.186;17.130;2023-09-19T12:19:18;3.10;;;0.90;;
70532;SDS011;58088;51.186;17.130;2023-09-19T12:22:01;2.50;;;0.90;;
70532;SDS011;58088;51.186;17.130;2023-09-19T12:24:33;2.70;;;0.90;;
70532;SDS011;58088;51.186;17.130;2023-09-19T12:27:03;1.80;;;0.70;;
70532;SDS011;58088;51.186;17.130;2023-09-19T12:29:52;2.80;;;0.90;;
70532;SDS011;58088;51.186;17.130;2023-09-19T12:32:36;2.90;;;0.80;;
70532;SDS011;58088;51.186;17.130;2023-09-19T12:35:10;3.60;;;1.00;;
70532;SDS011;58088;51.186;17.130;2023-09-19T12:37:54;2.00;;;0.80;;
70532;SDS011;58088;51.186;17.130;2023-09-19T12:40:21;2.50;;;1.00;;
70532;SDS011;58088;51.186;17.130;2023-09-19T12:42:54;3.70;;;0.90;;
70532;SDS011;58088;51.186;17.130;2023-09-19T12:45:21;3.60;;;1.00;;
70532;SDS011;58088;51.186;17.130;2023-09-19T12:48:22;2.10;;;0.80;;
70532;SDS011;58088;51.186;17.130;2023-09-19T12:51:11;2.50;;;0.90;;
70532;SDS011;58088;51.186;17.130;2023-09-19T12:53:40;2.40;;;0.90;;
70532;SDS011;58088;51.186;17.130;2023-09-19T12:56:15;2.40;;;0.80;;
70532;SDS011;58088;51.186;17.130;2023-09-19T12:58:57;3.20;;;0.90;;
70532;SDS011;58088;51.186;17.130;2023-09-19T13:01:28;1.90;;;1.00;;
70532;SDS011;58088;51.186;17.130;2023-09-19T13:04:17;2.60;;;1.00;;
70532;SDS011;58088;51.186;17.130;2023-09-19T13:06:49;3.20;;;1.00;;
70532;SDS011;58088;51.186;17.130;2023-09-19T13:09:17;3.50;;;1.00;;
70532;SDS011;58088;51.186;17.130;2023-09-19T13:11:46;1.70;;;0.70;;
70532;SDS011;58088;51.186;17.130;2023-09-19T13:14:20;1.90;;;0.80;;
70532;SDS011;58088;51.186;17.130;2023-09-19T13:16:55;3.70;;;0.90;;
70532;SDS011;58088;51.186;17.130;2023-09-19T13:25:21;2.30;;;0.80;;
70532;SDS011;58088;51.186;17.130;2023-09-19T13:27:51;2.70;;;0.80;;
70532;SDS011;58088;51.186;17.130;2023-09-19T13:30:23;3.70;;;0.90;;
70532;SDS011;58088;51.186;17.130;2023-09-19T13:33:09;2.10;;;0.80;;
70532;SDS011;58088;51.186;17.130;2023-09-19T13:35:39;1.80;;;0.60;;
70532;SDS011;58088;51.186;17.130;2023-09-19T13:38:09;2.70;;;1.00;;
70532;SDS011;58088;51.186;17.130;2023-09-19T13:40:38;2.70;;;0.90;;
70532;SDS011;58088;51.186;17.130;2023-09-19T13:43:08;3.60;;;1.00;;
70532;SDS011;58088;51.186;17.130;2023-09-19T13:45:34;3.80;;;0.80;;
70532;SDS011;58088;51.186;17.130;2023-09-19T13:48:00;3.00;;;0.90;;
70532;SDS011;58088;51.186;17.130;2023-09-19T13:50:26;1.60;;;0.70;;
70532;SDS011;58088;51.186;17.130;2023-09-19T13:52:55;2.00;;;0.80;;
70532;SDS011;58088;51.186;17.130;2023-09-19T13:55:21;3.20;;;1.00;;
70532;SDS011;58088;51.186;17.130;2023-09-19T13:57:48;1.90;;;0.70;;
70532;SDS011;58088;51.186;17.130;2023-09-19T14:00:16;3.90;;;0.90;;
70532;SDS011;58088;51.186;17.130;2023-09-19T14:02:43;3.20;;;0.70;;
70532;SDS011;58088;51.186;17.130;2023-09-19T14:05:11;2.00;;;0.80;;
70532;SDS011;58088;51.186;17.130;2023-09-19T14:07:41;7.70;;;1.10;;
70532;SDS011;58088;51.186;17.130;2023-09-19T14:10:11;2.50;;;1.00;;
70532;SDS011;58088;51.186;17.130;2023-09-19T14:12:38;2.20;;;0.70;;
70532;SDS011;58088;51.186;17.130;2023-09-19T14:15:08;2.20;;;0.70;;
70532;SDS011;58088;51.186;17.130;2023-09-19T14:17:35;2.60;;;0.80;;
70532;SDS011;58088;51.186;17.130;2023-09-19T14:20:01;1.80;;;0.80;;
70532;SDS011;58088;51.186;17.130;2023-09-19T14:22:27;4.30;;;0.80;;
70532;SDS011;58088;51.186;17.130;2023-09-19T14:24:53;2.60;;;0.80;;
70532;SDS011;58088;51.186;17.130;2023-09-19T14:27:19;1.10;;;0.60;;
70532;SDS011;58088;51.186;17.130;2023-09-19T14:29:46;2.50;;;1.00;;
70532;SDS011;58088;51.186;17.130;2023-09-19T14:32:12;2.60;;;0.80;;
70532;SDS011;58088;51.186;17.130;2023-09-19T14:34:38;2.20;;;0.80;;
70532;SDS011;58088;51.186;17.130;2023-09-19T14:37:08;2.00;;;0.70;;
70532;SDS011;58088;51.186;17.130;2023-09-19T14:39:34;5.80;;;1.10;;
70532;SDS011;58088;51.186;17.130;2023-09-19T14:42:01;3.80;;;1.00;;
70532;SDS011;58088;51.186;17.130;2023-09-19T14:44:28;3.00;;;0.90;;
70532;SDS011;58088;51.186;17.130;2023-09-19T14:46:55;4.30;;;1.00;;
70532;SDS011;58088;51.186;17.130;2023-09-19T14:49:21;1.60;;;0.70;;
70532;SDS011;58088;51.186;17.130;2023-09-19T14:51:47;1.80;;;0.80;;
70532;SDS011;58088;51.186;17.130;2023-09-19T14:54:14;2.10;;;0.90;;
70532;SDS011;58088;51.186;17.130;2023-09-19T14:56:43;4.60;;;0.90;;
70532;SDS011;58088;51.186;17.130;2023-09-19T14:59:11;3.20;;;0.80;;
70532;SDS011;58088;51.186;17.130;2023-09-19T15:01:38;2.10;;;0.90;;
70532;SDS011;58088;51.186;17.130;2023-09-19T15:04:05;2.50;;;0.90;;
70532;SDS011;58088;51.186;17.130;2023-09-19T15:06:32;2.70;;;0.80;;
70532;SDS011;58088;51.186;17.130;2023-09-19T15:08:58;4.80;;;0.80;;
70532;SDS011;58088;51.186;17.130;2023-09-19T15:11:24;2.40;;;0.80;;
70532;SDS011;58088;51.186;17.130;2023-09-19T15:13:52;4.50;;;0.80;;
70532;SDS011;58088;51.186;17.130;2023-09-19T15:16:20;1.90;;;0.80;;
70532;SDS011;58088;51.186;17.130;2023-09-19T15:18:46;2.00;;;0.80;;
70532;SDS011;58088;51.186;17.130;2023-09-19T15:21:14;3.30;;;0.90;;
70532;SDS011;58088;51.186;17.130;2023-09-19T15:23:42;1.90;;;0.70;;
70532;SDS011;58088;51.186;17.130;2023-09-19T15:26:11;2.00;;;1.00;;
70532;SDS011;58088;51.186;17.130;2023-09-19T15:28:43;2.90;;;0.80;;
70532;SDS011;58088;51.186;17.130;2023-09-19T15:31:11;3.00;;;0.90;;
70532;SDS011;58088;51.186;17.130;2023-09-19T15:33:39;2.00;;;0.80;;
70532;SDS011;58088;51.186;17.130;2023-09-19T15:36:08;1.90;;;0.70;;
70532;SDS011;58088;51.186;17.130;2023-09-19T15:38:57;2.70;;;0.80;;
70532;SDS011;58088;51.186;17.130;2023-09-19T15:41:25;3.20;;;0.90;;